Time;durP1;ratioP1;P1;durP2;ratioP2;P2;SDS_P1;SDS_P2;PMS_P1;PMS_P2;Temp;Humidity;BMP_temperature;BMP_pressure;BME280_temperature;BME280_humidity;BME280_pressure;Samples;Min_cycle;Max_cycle;Signal;HPM_P1;HPM_P2
2023/01/27 00:01:55;;;;;;;;;;;;;;;;;;;;;
2023/01/27 00:04:26;;;;;;;21.52;7.20;;;;;;;3.82;100.00;102526.19;5008252;28;20052;-91
2023/01/27 00:07:12;;;;;;;19.23;9.52;;;;;;;3.61;100.00;102511.69;5011353;28;20461;-92
2023/01/27 00:09:46;;;;;;;17.33;8.18;;;;;;;3.62;100.00;102526.38;5013656;28;20029;-92
2023/01/27 00:15:08;;;;;;;19.83;9.95;;;;;;;3.49;100.00;102502.94;5014512;28;20063;-91
2023/01/27 00:17:43;;;;;;;18.55;8.27;;;;;;;3.72;100.00;102517.97;5013761;28;20030;-92
2023/01/27 00:24:34;;;;;;;27.05;9.55;;;;;;;3.53;100.00;102503.19;5000461;28;20042;-91
2023/01/27 00:25:59;;;;;;;21.08;9.05;;;;;;;3.60;100.00;102507.25;5012036;28;20084;-93
2023/01/27 00:28:25;;;;;;;19.02;8.88;;;;;;;3.45;100.00;102532.31;5013565;28;20030;-91
2023/01/27 00:30:51;;;;;;;20.40;9.25;;;;;;;3.56;100.00;102531.09;5013484;28;20029;-92
2023/01/27 00:33:26;;;;;;;26.95;10.55;;;;;;;3.61;100.00;102530.25;5009823;28;20030;-92
2023/01/27 00:36:03;;;;;;;21.88;9.45;;;;;;;3.61;100.00;102541.34;5007593;28;20433;-93
2023/01/27 00:38:39;;;;;;;20.88;9.35;;;;;;;3.52;100.00;102543.06;5011366;28;20058;-94
2023/01/27 00:41:14;;;;;;;20.60;9.52;;;;;;;3.58;100.00;102537.19;5007001;28;20033;-93
2023/01/27 00:43:49;;;;;;;21.42;10.18;;;;;;;3.60;100.00;102534.13;5012530;28;20021;-91
2023/01/27 00:46:21;;;;;;;26.17;11.18;;;;;;;3.62;100.00;102548.50;5006409;28;20037;-92
2023/01/27 00:48:58;;;;;;;20.10;9.80;;;;;;;3.43;100.00;102524.28;5008987;28;20365;-91
2023/01/27 00:51:24;;;;;;;29.95;11.38;;;;;;;3.55;100.00;102534.19;5015716;28;20029;-92
2023/01/27 00:53:58;;;;;;;24.27;11.23;;;;;;;3.58;100.00;102531.66;5017157;28;20516;-91
2023/01/27 00:56:49;;;;;;;25.52;10.98;;;;;;;3.62;100.00;102532.72;5013239;28;20117;-91
2023/01/27 00:59:23;;;;;;;27.75;11.57;;;;;;;3.62;100.00;102527.19;5022109;28;20116;-91
2023/01/27 01:01:51;;;;;;;28.10;11.48;;;;;;;3.69;100.00;102546.25;5010044;28;20473;-91
2023/01/27 01:04:42;;;;;;;31.15;10.13;;;;;;;3.56;100.00;102539.41;5010286;28;20041;-93
2023/01/27 01:07:35;;;;;;;26.95;11.27;;;;;;;3.57;100.00;102556.88;5005914;28;20465;-91
2023/01/27 01:10:12;;;;;;;34.65;10.63;;;;;;;3.54;100.00;102551.91;5005859;28;20034;-91
2023/01/27 01:12:47;;;;;;;24.33;10.93;;;;;;;3.53;100.00;102566.88;5007207;28;20116;-91
2023/01/27 01:15:18;;;;;;;23.08;11.50;;;;;;;3.66;100.00;102566.22;5009003;28;20025;-90
2023/01/27 01:17:44;;;;;;;26.20;11.85;;;;;;;3.56;100.00;102555.22;5010102;28;20029;-91
2023/01/27 01:20:38;;;;;;;27.60;11.45;;;;;;;3.52;100.00;102577.13;5011559;28;20538;-92
2023/01/27 01:23:06;;;;;;;21.13;10.05;;;;;;;3.62;100.00;102565.13;4997525;28;20066;-91
2023/01/27 01:25:48;;;;;;;;;;;;;;;;;;;;;
2023/01/27 01:28:23;;;;;;;28.50;13.32;;;;;;;3.45;100.00;102566.34;5008863;28;20028;-92
2023/01/27 01:30:51;;;;;;;30.33;13.38;;;;;;;3.45;100.00;102571.91;5006374;28;20068;-92
2023/01/27 01:33:31;;;;;;;26.52;12.48;;;;;;;3.40;100.00;102558.09;5008294;28;20104;-92
2023/01/27 01:36:10;;;;;;;27.55;12.55;;;;;;;3.65;100.00;102575.66;5006809;28;20541;-92
2023/01/27 01:38:36;;;;;;;25.63;13.77;;;;;;;3.51;100.00;102566.34;5007819;28;20136;-91
2023/01/27 01:41:03;;;;;;;30.80;13.13;;;;;;;3.53;100.00;102572.41;5002970;28;20066;-91
2023/01/27 01:43:29;;;;;;;25.75;12.75;;;;;;;3.58;100.00;102567.63;5008302;28;20026;-91
2023/01/27 01:45:59;;;;;;;34.47;13.32;;;;;;;3.58;100.00;102587.03;5001493;28;20033;-92
2023/01/27 01:48:31;;;;;;;26.65;12.80;;;;;;;3.39;100.00;102595.19;5016785;28;20113;-92
2023/01/27 01:51:07;;;;;;;33.47;12.05;;;;;;;3.60;100.00;102595.06;5007836;28;20029;-92
2023/01/27 01:53:57;;;;;;;26.95;12.57;;;;;;;3.53;100.00;102577.94;5001911;28;20040;-92
2023/01/27 01:56:27;;;;;;;27.02;12.52;;;;;;;3.62;100.00;102598.34;4993768;28;20026;-91
2023/01/27 01:58:58;;;;;;;21.50;11.15;;;;;;;3.47;100.00;102585.47;5013488;28;20120;-92
2023/01/27 02:01:24;;;;;;;22.50;11.32;;;;;;;3.59;100.00;102593.41;5008800;28;20342;-91
2023/01/27 02:03:57;;;;;;;26.75;11.80;;;;;;;3.54;100.00;102585.13;5012701;28;20035;-92
2023/01/27 02:06:23;;;;;;;24.25;10.95;;;;;;;3.58;100.00;102588.97;5008152;28;20046;-90
2023/01/27 02:08:50;;;;;;;23.83;12.55;;;;;;;3.57;100.00;102590.09;5009380;28;20030;-89
2023/01/27 02:11:16;;;;;;;23.40;10.15;;;;;;;3.72;100.00;102591.94;5008569;28;20473;-91
2023/01/27 02:13:43;;;;;;;20.92;12.23;;;;;;;3.54;100.00;102590.66;5004880;28;20080;-91
2023/01/27 02:16:19;;;;;;;19.98;11.30;;;;;;;3.54;100.00;102596.19;5011120;28;20037;-92
2023/01/27 02:18:44;;;;;;;21.42;10.57;;;;;;;3.73;100.00;102601.88;5011950;28;20026;-91
2023/01/27 02:21:10;;;;;;;19.17;9.88;;;;;;;3.67;100.00;102601.94;5012201;28;20152;-91
2023/01/27 02:23:56;;;;;;;15.23;9.20;;;;;;;3.65;100.00;102587.53;5004832;28;20022;-90
2023/01/27 02:26:28;;;;;;;16.70;9.38;;;;;;;3.64;100.00;102579.50;5010270;28;20026;-91
2023/01/27 02:28:56;;;;;;;22.50;10.60;;;;;;;3.67;100.00;102573.41;5014028;28;20114;-91
2023/01/27 02:31:22;;;;;;;20.42;10.95;;;;;;;3.67;100.00;102574.22;5004579;28;20045;-91
2023/01/27 02:33:48;;;;;;;21.10;8.77;;;;;;;3.65;100.00;102584.78;5012357;28;20034;-91
2023/01/27 02:36:16;;;;;;;21.33;10.10;;;;;;;3.60;100.00;102579.25;5008450;28;20033;-90
2023/01/27 02:38:52;;;;;;;17.20;9.30;;;;;;;3.73;100.00;102586.09;5000268;28;20120;-91
2023/01/27 02:41:32;;;;;;;15.20;8.18;;;;;;;3.70;100.00;102594.97;5008965;28;20021;-92
2023/01/27 02:43:58;;;;;;;15.85;8.50;;;;;;;3.66;100.00;102591.13;4998450;28;20188;-91
2023/01/27 02:46:27;;;;;;;16.48;7.95;;;;;;;3.66;100.00;102583.63;4997416;28;20026;-91
2023/01/27 02:49:02;;;;;;;13.25;8.02;;;;;;;3.82;100.00;102587.13;4996614;28;20037;-91
2023/01/27 02:51:29;;;;;;;16.83;7.75;;;;;;;3.78;100.00;102591.59;5000466;28;20018;-91
2023/01/27 02:53:54;;;;;;;14.25;6.85;;;;;;;3.68;100.00;102583.38;4995488;28;20034;-90
2023/01/27 02:56:22;;;;;;;10.60;5.65;;;;;;;3.78;100.00;102593.53;5003365;28;20023;-92
2023/01/27 02:59:05;;;;;;;15.50;6.82;;;;;;;3.75;100.00;102585.78;5009946;28;20093;-91
2023/01/27 03:01:33;;;;;;;9.45;6.18;;;;;;;3.66;100.00;102588.38;5007987;28;20061;-91
2023/01/27 03:04:04;;;;;;;11.25;6.28;;;;;;;3.70;100.00;102611.59;5007018;28;20113;-91
2023/01/27 03:06:41;;;;;;;10.30;6.20;;;;;;;3.75;100.00;102614.31;5005558;28;20050;-91
2023/01/27 03:09:15;;;;;;;13.13;5.85;;;;;;;3.60;100.00;102589.50;5002127;28;20026;-91
2023/01/27 03:20:06;;;;;;;10.90;5.72;;;;;;;3.70;100.00;102583.09;5002380;28;20037;-91
2023/01/27 03:22:34;;;;;;;11.60;5.70;;;;;;;3.59;100.00;102591.47;5003163;28;20038;-90
2023/01/27 03:25:09;;;;;;;11.25;5.28;;;;;;;3.60;100.00;102592.28;5004705;28;20120;-91
2023/01/27 03:27:38;;;;;;;10.57;6.78;;;;;;;3.70;100.00;102600.53;5008423;28;20045;-91
2023/01/27 03:30:17;;;;;;;10.25;6.15;;;;;;;3.83;100.00;102594.31;5007854;28;20096;-90
2023/01/27 03:32:45;;;;;;;9.27;5.60;;;;;;;3.76;100.00;102591.06;5013630;28;20030;-91
2023/01/27 03:35:33;;;;;;;11.40;6.70;;;;;;;3.90;100.00;102604.22;5011951;28;20613;-92
2023/01/27 03:46:36;;;;;;;10.23;6.15;;;;;;;3.69;100.00;102609.97;5007947;28;20044;-90
2023/01/27 03:49:05;;;;;;;13.02;6.95;;;;;;;3.69;100.00;102614.66;4998775;28;20037;-90
2023/01/27 03:51:30;;;;;;;13.82;6.65;;;;;;;3.70;100.00;102608.00;5010129;28;20033;-92
2023/01/27 03:54:00;;;;;;;11.57;6.40;;;;;;;3.75;100.00;102619.03;5006481;28;20022;-91
2023/01/27 03:56:35;;;;;;;12.57;6.45;;;;;;;3.72;100.00;102612.13;5006105;28;20422;-92
2023/01/27 03:59:00;;;;;;;12.45;6.65;;;;;;;3.68;100.00;102619.38;5006907;28;20117;-91
2023/01/27 04:01:26;;;;;;;10.93;6.38;;;;;;;3.65;100.00;102618.00;5001693;28;20069;-91
2023/01/27 04:06:57;;;;;;;11.35;6.03;;;;;;;3.76;100.00;102631.78;5007436;28;20057;-91
2023/01/27 04:09:34;;;;;;;9.80;6.18;;;;;;;3.50;100.00;102618.13;5002284;28;20393;-91
2023/01/27 04:12:05;;;;;;;11.02;6.70;;;;;;;3.62;100.00;102634.34;5008373;28;20415;-90
2023/01/27 04:14:33;;;;;;;10.50;5.40;;;;;;;3.60;100.00;102633.81;4998085;28;20121;-91
2023/01/27 04:17:22;;;;;;;10.77;5.90;;;;;;;3.55;100.00;102631.91;5007138;28;20041;-90
2023/01/27 04:19:52;;;;;;;8.38;5.35;;;;;;;3.69;100.00;102620.19;5006957;28;20042;-92
2023/01/27 04:22:26;;;;;;;9.45;5.60;;;;;;;3.70;100.00;102638.47;5000464;28;20034;-91
2023/01/27 04:24:56;;;;;;;8.38;5.00;;;;;;;3.65;100.00;102634.63;5005385;28;20101;-90
2023/01/27 04:27:26;;;;;;;7.97;4.93;;;;;;;3.73;100.00;102624.03;5013500;28;20514;-91
2023/01/27 04:30:00;;;;;;;9.18;4.03;;;;;;;3.57;100.00;102617.78;5006083;28;20057;-91
2023/01/27 04:32:26;;;;;;;9.23;5.15;;;;;;;3.71;100.00;102618.81;5009137;28;20033;-89
2023/01/27 04:34:54;;;;;;;8.65;4.25;;;;;;;3.81;100.00;102626.19;5014100;28;20045;-90
2023/01/27 04:37:23;;;;;;;7.18;4.80;;;;;;;3.62;100.00;102624.09;5007084;28;20039;-91
2023/01/27 04:39:53;;;;;;;6.95;4.50;;;;;;;3.65;100.00;102619.94;5008545;28;20038;-91
2023/01/27 04:42:21;;;;;;;8.13;5.10;;;;;;;3.77;100.00;102634.25;5008370;28;20099;-90
2023/01/27 04:44:47;;;;;;;6.05;4.30;;;;;;;3.73;100.00;102624.88;5010986;28;20038;-90
2023/01/27 04:47:13;;;;;;;4.88;3.83;;;;;;;3.61;100.00;102628.00;5005758;28;20512;-91
2023/01/27 04:49:41;;;;;;;7.45;4.40;;;;;;;3.76;100.00;102627.06;5008156;28;20129;-90
2023/01/27 04:52:15;;;;;;;6.80;4.70;;;;;;;3.74;100.00;102623.75;5009560;28;20473;-91
2023/01/27 04:54:50;;;;;;;4.28;3.50;;;;;;;3.61;100.00;102624.41;5000576;28;20121;-90
2023/01/27 04:57:16;;;;;;;5.35;4.13;;;;;;;3.72;100.00;102628.75;5014437;28;20037;-90
2023/01/27 04:59:49;;;;;;;7.88;4.18;;;;;;;3.69;100.00;102617.41;5006030;28;20030;-90
2023/01/27 05:02:25;;;;;;;4.70;3.67;;;;;;;3.67;100.00;102626.03;5009955;28;20069;-90
2023/01/27 05:04:51;;;;;;;5.32;3.95;;;;;;;3.69;100.00;102632.13;5010875;28;20026;-90
2023/01/27 05:07:17;;;;;;;8.13;3.53;;;;;;;3.53;100.00;102638.88;4997551;28;20038;-91
2023/01/27 05:09:43;;;;;;;4.72;3.92;;;;;;;3.53;100.00;102633.31;5010307;28;20026;-90
2023/01/27 05:12:14;;;;;;;6.22;3.85;;;;;;;3.54;100.00;102641.34;5000713;28;20493;-90
2023/01/27 05:14:43;;;;;;;5.90;4.03;;;;;;;3.64;100.00;102649.56;5006396;28;20060;-91
2023/01/27 05:17:19;;;;;;;5.60;4.28;;;;;;;3.69;100.00;102653.41;4998351;28;20519;-91
2023/01/27 05:19:50;;;;;;;4.20;3.80;;;;;;;3.60;100.00;102653.19;5001324;28;20100;-91
2023/01/27 05:22:16;;;;;;;6.80;4.00;;;;;;;3.77;100.00;102670.25;5006687;28;20076;-92
2023/01/27 05:24:42;;;;;;;5.57;3.83;;;;;;;3.50;100.00;102650.50;5001376;28;20079;-91
2023/01/27 05:27:15;;;;;;;7.60;4.00;;;;;;;3.65;100.00;102653.19;5006369;28;20041;-91
2023/01/27 05:29:44;;;;;;;6.75;3.97;;;;;;;3.51;100.00;102654.94;5004442;28;20117;-91
2023/01/27 05:32:14;;;;;;;5.28;4.45;;;;;;;3.50;100.00;102650.50;5003540;28;20468;-90
2023/01/27 05:34:48;;;;;;;6.03;4.22;;;;;;;3.63;100.00;102656.22;4999170;28;20060;-91
2023/01/27 05:37:18;;;;;;;6.00;4.72;;;;;;;3.66;100.00;102671.44;5004509;28;20061;-92
2023/01/27 05:39:47;;;;;;;5.82;4.35;;;;;;;3.45;100.00;102659.66;5009378;28;20029;-91
2023/01/27 05:42:26;;;;;;;6.43;4.60;;;;;;;3.45;100.00;102670.75;5019149;28;20029;-92
2023/01/27 05:44:51;;;;;;;6.05;4.35;;;;;;;3.49;100.00;102682.91;5000856;28;20021;-92
2023/01/27 05:47:17;;;;;;;4.88;3.72;;;;;;;3.60;100.00;102694.75;5005834;28;20492;-89
2023/01/27 05:49:46;;;;;;;7.25;4.13;;;;;;;3.54;100.00;102701.41;5001550;28;20595;-91
2023/01/27 05:52:17;;;;;;;8.35;3.65;;;;;;;3.53;100.00;102694.25;4999972;28;20105;-91
2023/01/27 05:54:45;;;;;;;10.10;4.15;;;;;;;3.60;100.00;102689.19;5003986;28;20423;-90
2023/01/27 05:57:14;;;;;;;5.30;3.85;;;;;;;3.53;100.00;102678.44;4999402;28;20037;-91
2023/01/27 05:59:41;;;;;;;5.65;3.30;;;;;;;3.60;100.00;102684.47;5004162;28;20112;-90
2023/01/27 06:02:14;;;;;;;7.40;3.25;;;;;;;3.56;100.00;102700.00;5005306;28;20033;-91
2023/01/27 06:04:48;;;;;;;6.57;3.22;;;;;;;3.53;100.00;102677.63;5001590;28;20045;-90
2023/01/27 06:07:16;;;;;;;4.60;3.38;;;;;;;3.51;100.00;102677.09;5008602;28;20455;-90
2023/01/27 06:09:46;;;;;;;5.63;3.53;;;;;;;3.57;100.00;102684.25;5006907;28;20033;-89
2023/01/27 06:12:15;;;;;;;6.70;3.83;;;;;;;3.58;100.00;102692.25;5008823;28;20034;-89
2023/01/27 06:14:41;;;;;;;6.32;3.78;;;;;;;3.51;100.00;102686.22;5008001;28;20076;-90
2023/01/27 06:17:07;;;;;;;5.65;3.85;;;;;;;3.61;100.00;102696.41;5008543;28;20434;-91
2023/01/27 06:19:40;;;;;;;6.28;3.85;;;;;;;3.44;100.00;102696.78;5009745;28;20060;-90
2023/01/27 06:22:11;;;;;;;7.72;4.20;;;;;;;3.53;100.00;102700.59;4994713;28;20449;-90
2023/01/27 06:24:40;;;;;;;4.93;3.70;;;;;;;3.47;100.00;102691.47;5005185;28;20030;-90
2023/01/27 06:27:10;;;;;;;5.90;3.88;;;;;;;3.51;100.00;102702.81;5003589;28;20049;-91
2023/01/27 06:29:38;;;;;;;9.68;4.13;;;;;;;3.62;100.00;102709.94;5004640;28;20129;-89
2023/01/27 06:32:03;;;;;;;5.03;3.42;;;;;;;3.49;100.00;102691.19;5003128;28;20576;-91
2023/01/27 06:34:34;;;;;;;6.28;3.28;;;;;;;3.59;100.00;102693.09;5012517;28;20030;-91
2023/01/27 06:37:05;;;;;;;7.13;3.70;;;;;;;3.36;100.00;102692.66;5003568;28;20045;-91
2023/01/27 06:39:30;;;;;;;7.95;3.65;;;;;;;3.55;100.00;102692.00;5002993;28;20542;-90
2023/01/27 06:41:56;;;;;;;9.43;3.70;;;;;;;3.42;100.00;102702.59;5007903;28;20037;-90
2023/01/27 06:44:21;;;;;;;8.52;3.65;;;;;;;3.52;100.00;102711.94;5011640;28;20126;-91
2023/01/27 06:46:47;;;;;;;4.53;3.20;;;;;;;3.39;100.00;102699.56;4999155;28;20112;-90
2023/01/27 06:49:14;;;;;;;5.25;4.13;;;;;;;3.49;100.00;102707.00;5002195;28;20022;-90
2023/01/27 06:51:39;;;;;;;7.55;3.15;;;;;;;3.45;100.00;102699.25;5010782;28;20029;-90
2023/01/27 06:54:05;;;;;;;7.22;3.33;;;;;;;3.42;100.00;102704.53;5007087;28;20037;-91
2023/01/27 06:56:30;;;;;;;5.47;3.28;;;;;;;3.38;100.00;102704.28;5007804;28;20290;-90
2023/01/27 06:58:56;;;;;;;6.00;3.65;;;;;;;3.51;100.00;102718.63;4999222;28;20421;-90
2023/01/27 07:01:21;;;;;;;7.50;3.53;;;;;;;3.44;100.00;102713.38;5001928;28;20026;-90
2023/01/27 07:03:46;;;;;;;6.05;2.95;;;;;;;3.30;100.00;102701.28;5006803;28;20132;-89
2023/01/27 07:06:13;;;;;;;5.70;3.67;;;;;;;3.54;100.00;102701.41;5007361;28;20049;-90
2023/01/27 07:08:39;;;;;;;5.75;2.97;;;;;;;3.56;100.00;102726.88;5009570;28;20032;-89
2023/01/27 07:11:04;;;;;;;5.82;3.10;;;;;;;3.55;100.00;102705.84;5007643;28;20022;-90
2023/01/27 07:13:30;;;;;;;8.45;3.33;;;;;;;3.58;100.00;102724.66;5005523;28;20071;-89
2023/01/27 07:15:56;;;;;;;5.85;3.38;;;;;;;3.57;100.00;102714.72;5007326;28;20050;-89
2023/01/27 07:19:18;;;;;;;8.02;3.28;;;;;;;3.56;100.00;102726.88;5005819;28;20080;-89
2023/01/27 07:29:41;;;;;;;5.78;3.50;;;;;;;3.36;100.00;102716.75;4932197;29;20043;-89
2023/01/27 07:32:58;;;;;;;;;;;;;;;;;;;;;
2023/01/27 07:39:16;;;;;;;3.85;3.17;;;;;;;3.41;100.00;102753.53;5005998;28;20378;-90
2023/01/27 07:42:39;;;;;;;;;;;;;;;;;;;;;
2023/01/27 07:45:53;;;;;;;;;;;;;;;;;;;;;
2023/01/27 07:49:11;;;;;;;;;;;;;;;;;;;;;
2023/01/27 07:51:22;;;;;;;;;;;;;;;;;;;;;
2023/01/27 07:53:59;;;;;;;6.38;3.65;;;;;;;3.21;100.00;102748.09;5008429;28;20117;-90
2023/01/27 07:56:27;;;;;;;6.60;3.80;;;;;;;3.12;100.00;102749.75;5010642;28;20072;-89
2023/01/27 07:58:54;;;;;;;7.85;3.67;;;;;;;3.19;100.00;102764.13;5011763;28;20503;-89
2023/01/27 08:01:43;;;;;;;4.10;2.97;;;;;;;3.45;100.00;102762.91;5007685;28;20030;-90
2023/01/27 08:04:34;;;;;;;6.90;3.92;;;;;;;3.36;100.00;102761.03;4950617;28;20086;-89
2023/01/27 08:07:44;;;;;;;7.00;3.70;;;;;;;3.03;100.00;102744.78;4964440;28;20034;-89
2023/01/27 08:10:53;;;;;;;6.75;3.80;;;;;;;3.34;100.00;102769.63;4950567;28;20049;-90
2023/01/27 08:13:18;;;;;;;19.27;5.30;;;;;;;3.61;100.00;102773.94;4988608;28;20042;-88
2023/01/27 08:15:44;;;;;;;8.55;4.72;;;;;;;3.85;100.00;102763.81;4989529;28;20040;-90
2023/01/27 08:18:09;;;;;;;9.23;4.68;;;;;;;3.75;100.00;102763.88;5010579;28;20113;-89
2023/01/27 08:20:35;;;;;;;7.15;3.88;;;;;;;3.68;100.00;102766.16;5008585;28;20108;-91
2023/01/27 08:23:01;;;;;;;5.28;4.70;;;;;;;3.65;100.00;102764.78;4994232;28;20046;-93
2023/01/27 08:25:26;;;;;;;6.82;4.03;;;;;;;3.65;100.00;102773.09;4992221;28;20030;-91
2023/01/27 08:27:53;;;;;;;11.52;4.72;;;;;;;3.61;100.00;102758.16;4995037;28;21278;-92
2023/01/27 08:30:19;;;;;;;10.57;4.82;;;;;;;3.67;100.00;102765.31;4989918;28;20131;-91
2023/01/27 08:32:45;;;;;;;11.10;5.80;;;;;;;3.69;100.00;102780.81;4992184;28;20136;-91
2023/01/27 08:35:10;;;;;;;10.70;5.07;;;;;;;3.64;100.00;102776.13;5009309;28;20037;-91
2023/01/27 08:37:36;;;;;;;9.48;4.10;;;;;;;3.61;100.00;102773.94;4991675;28;20042;-91
2023/01/27 08:40:02;;;;;;;8.63;5.25;;;;;;;3.70;100.00;102783.31;4991870;28;20037;-92
2023/01/27 08:42:27;;;;;;;5.65;4.60;;;;;;;3.69;100.00;102786.34;4992643;28;20077;-92
2023/01/27 08:44:52;;;;;;;10.43;5.10;;;;;;;3.57;100.00;102775.63;4987628;28;20477;-90
2023/01/27 08:47:18;;;;;;;10.30;4.80;;;;;;;3.64;100.00;102767.81;4990512;28;20033;-90
2023/01/27 08:49:44;;;;;;;6.40;4.57;;;;;;;3.57;100.00;102768.13;4988922;28;20026;-92
2023/01/27 08:52:10;;;;;;;11.80;4.95;;;;;;;3.52;100.00;102770.94;5004181;28;20026;-91
2023/01/27 08:54:35;;;;;;;6.03;4.57;;;;;;;3.67;100.00;102794.97;4997106;28;20026;-93
2023/01/27 08:57:01;;;;;;;8.68;5.28;;;;;;;3.57;100.00;102792.25;4983348;28;20269;-92
2023/01/27 08:59:26;;;;;;;8.93;4.53;;;;;;;3.50;100.00;102783.38;4995569;28;20022;-91
2023/01/27 09:01:51;;;;;;;6.97;4.43;;;;;;;3.58;100.00;102791.13;4988610;28;20495;-90
2023/01/27 09:04:17;;;;;;;7.40;4.88;;;;;;;3.71;100.00;102798.81;4993798;28;20154;-92
2023/01/27 09:06:42;;;;;;;8.25;4.82;;;;;;;3.62;100.00;102786.66;4999930;28;20515;-92
2023/01/27 09:09:08;;;;;;;8.43;4.93;;;;;;;3.78;100.00;102801.28;4993181;28;20022;-91
2023/01/27 09:11:34;;;;;;;6.43;4.38;;;;;;;3.68;100.00;102796.63;4995460;28;20034;-92
2023/01/27 09:14:39;;;;;;;6.97;4.18;;;;;;;3.90;100.00;102812.00;4992636;28;20030;-95
2023/01/27 09:17:52;;;;;;;8.43;4.80;;;;;;;3.75;100.00;102808.19;4983258;28;20033;-95
2023/01/27 09:28:10;;;;;;;8.27;5.13;;;;;;;3.90;100.00;102814.78;4934903;29;20046;-95
2023/01/27 09:35:31;;;;;;;7.75;4.55;;;;;;;3.76;100.00;102820.94;4859045;29;20064;-95
2023/01/27 09:38:15;;;;;;;8.23;4.63;;;;;;;3.98;100.00;102833.59;4773502;29;20046;-86
2023/01/27 09:40:52;;;;;;;8.02;4.38;;;;;;;4.03;100.00;102853.78;4824386;29;20145;-86
2023/01/27 09:43:26;;;;;;;6.65;4.25;;;;;;;4.13;100.00;102836.25;4964074;28;20045;-86
2023/01/27 09:46:16;;;;;;;12.82;4.85;;;;;;;4.02;100.00;102840.22;4982114;28;20026;-86
2023/01/27 09:49:19;;;;;;;12.07;5.13;;;;;;;4.27;100.00;102842.84;4991933;28;20490;-86
2023/01/27 09:52:10;;;;;;;7.88;4.60;;;;;;;3.99;100.00;102835.25;4984095;28;20547;-86
2023/01/27 09:54:51;;;;;;;6.32;4.25;;;;;;;4.05;100.00;102845.19;5002335;28;20045;-86
2023/01/27 09:57:35;;;;;;;6.35;4.82;;;;;;;4.08;100.00;102850.16;4990311;28;20076;-86
2023/01/27 10:00:18;;;;;;;7.10;4.75;;;;;;;4.15;100.00;102845.13;4976270;28;20050;-86
2023/01/27 10:03:17;;;;;;;11.90;5.00;;;;;;;4.23;100.00;102838.16;4981167;28;20066;-86
2023/01/27 10:06:08;;;;;;;8.68;5.18;;;;;;;4.27;100.00;102842.00;4981625;28;20513;-86
2023/01/27 10:08:53;;;;;;;8.20;5.55;;;;;;;4.37;100.00;102849.44;4989841;28;20022;-86
2023/01/27 10:11:32;;;;;;;7.40;4.32;;;;;;;4.10;100.00;102839.63;4989497;28;20029;-86
2023/01/27 10:14:10;;;;;;;7.47;4.35;;;;;;;4.19;100.00;102845.38;4981639;28;20066;-86
2023/01/27 10:16:56;;;;;;;7.05;4.57;;;;;;;4.00;100.00;102832.19;4992606;28;20116;-86
2023/01/27 10:19:50;;;;;;;8.25;4.05;;;;;;;4.05;100.00;102840.47;4986242;28;20023;-86
2023/01/27 10:22:43;;;;;;;8.18;3.90;;;;;;;4.06;100.00;102844.06;5001551;28;20046;-86
2023/01/27 10:25:51;;;;;;;6.45;3.88;;;;;;;4.12;100.00;102840.16;4978140;28;20022;-86
2023/01/27 10:28:21;;;;;;;9.98;4.97;;;;;;;4.13;100.00;102829.91;4945528;28;20560;-87
2023/01/27 10:31:01;;;;;;;6.68;3.72;;;;;;;4.08;100.00;102839.91;5003990;28;20156;-86
2023/01/27 10:33:38;;;;;;;6.60;3.53;;;;;;;4.07;100.00;102837.44;4994634;28;20034;-86
2023/01/27 10:36:27;;;;;;;7.65;3.78;;;;;;;4.07;100.00;102838.25;4995648;28;20029;-86
2023/01/27 10:39:09;;;;;;;5.65;4.35;;;;;;;4.27;100.00;102842.84;4988487;28;20096;-86
2023/01/27 10:41:34;;;;;;;7.30;3.70;;;;;;;4.40;100.00;102852.44;5000650;28;20227;-88
2023/01/27 10:44:30;;;;;;;4.25;3.28;;;;;;;4.41;100.00;102848.56;4992310;28;20124;-86
2023/01/27 10:47:04;;;;;;;8.27;3.65;;;;;;;4.30;100.00;102848.91;4982429;28;20055;-86
2023/01/27 10:49:53;;;;;;;5.93;3.17;;;;;;;4.28;100.00;102841.72;4980033;28;20076;-86
2023/01/27 10:52:29;;;;;;;5.80;3.97;;;;;;;4.45;100.00;102843.28;4992998;28;20073;-87
2023/01/27 10:55:16;;;;;;;11.13;4.63;;;;;;;4.32;100.00;102849.47;4977091;28;20026;-86
2023/01/27 10:57:55;;;;;;;7.47;3.97;;;;;;;4.26;100.00;102846.72;4987375;28;20026;-86
2023/01/27 11:00:31;;;;;;;7.20;3.63;;;;;;;4.24;100.00;102851.75;4994254;28;20040;-86
2023/01/27 11:03:05;;;;;;;7.53;5.20;;;;;;;4.16;100.00;102846.78;4978090;28;20372;-86
2023/01/27 11:05:46;;;;;;;4.93;3.42;;;;;;;4.23;100.00;102838.97;4997019;28;20175;-86
2023/01/27 11:08:16;;;;;;;6.35;3.85;;;;;;;4.29;100.00;102839.78;4990443;28;20025;-87
2023/01/27 11:13:31;;;;;;;7.50;4.15;;;;;;;4.04;100.00;102841.56;4994540;28;20148;-86
2023/01/27 11:15:58;;;;;;;6.60;3.53;;;;;;;4.23;100.00;102841.75;4984269;28;20048;-86
2023/01/27 11:18:29;;;;;;;8.02;4.18;;;;;;;4.06;100.00;102841.31;5001729;28;20055;-86
2023/01/27 11:21:25;;;;;;;7.72;4.22;;;;;;;4.02;100.00;102840.22;5005593;28;20060;-87
2023/01/27 11:23:59;;;;;;;9.88;4.30;;;;;;;4.02;100.00;102835.50;4977829;28;20093;-86
2023/01/27 11:27:11;;;;;;;8.77;3.90;;;;;;;4.21;100.00;102823.75;4993648;28;20041;-86
2023/01/27 11:29:47;;;;;;;4.38;3.47;;;;;;;4.03;100.00;102814.19;4983496;28;20497;-87
2023/01/27 11:32:31;;;;;;;6.13;2.85;;;;;;;4.01;100.00;102831.09;5007052;28;20022;-87
2023/01/27 11:35:02;;;;;;;6.57;3.58;;;;;;;4.10;100.00;102828.53;5006189;28;20025;-87
2023/01/27 11:37:36;;;;;;;5.38;3.60;;;;;;;4.13;100.00;102822.41;4992926;28;20038;-87
2023/01/27 11:40:03;;;;;;;6.30;3.30;;;;;;;4.33;100.00;102826.19;4988906;28;20037;-87
2023/01/27 11:42:35;;;;;;;5.60;3.83;;;;;;;4.13;100.00;102829.91;4986367;28;20026;-87
2023/01/27 11:45:01;;;;;;;9.50;3.95;;;;;;;4.11;100.00;102826.59;4992609;28;20033;-87
2023/01/27 11:47:31;;;;;;;6.10;3.58;;;;;;;4.10;100.00;102827.72;5010477;28;20022;-87
2023/01/27 11:49:58;;;;;;;6.95;3.83;;;;;;;4.12;100.00;102818.00;4997497;28;20029;-87
2023/01/27 11:52:27;;;;;;;8.45;4.05;;;;;;;4.17;100.00;102812.41;4994486;28;20046;-87
2023/01/27 11:55:04;;;;;;;6.20;3.83;;;;;;;4.27;100.00;102820.66;4982333;28;20037;-87
2023/01/27 11:57:30;;;;;;;4.03;2.95;;;;;;;4.02;100.00;102815.28;4994851;28;20378;-87
2023/01/27 12:00:27;;;;;;;6.45;3.25;;;;;;;4.13;100.00;102824.34;4993926;28;20037;-87
2023/01/27 12:03:16;;;;;;;5.43;3.67;;;;;;;4.18;100.00;102813.25;5009972;28;20427;-86
2023/01/27 12:05:47;;;;;;;6.15;3.90;;;;;;;4.04;100.00;102808.31;5010904;28;20425;-87
2023/01/27 12:08:35;;;;;;;5.35;3.42;;;;;;;4.19;100.00;102817.66;4997906;28;20034;-87
2023/01/27 12:11:21;;;;;;;7.13;3.70;;;;;;;4.18;100.00;102794.66;4994140;28;20017;-87
2023/01/27 12:13:57;;;;;;;5.18;3.55;;;;;;;4.57;100.00;102798.53;4996580;28;20116;-87
2023/01/27 12:16:27;;;;;;;6.72;3.72;;;;;;;4.40;100.00;102791.44;4993443;28;20033;-87
2023/01/27 12:19:11;;;;;;;6.40;3.80;;;;;;;4.30;100.00;102777.69;4993647;28;20053;-87
2023/01/27 12:21:51;;;;;;;4.47;2.83;;;;;;;4.31;100.00;102786.84;4986312;28;20034;-87
2023/01/27 12:24:44;;;;;;;10.02;4.22;;;;;;;4.30;100.00;102782.38;4989185;28;20121;-87
2023/01/27 12:27:21;;;;;;;4.65;3.35;;;;;;;4.54;100.00;102797.19;5008931;28;20030;-88
2023/01/27 12:29:57;;;;;;;6.80;4.15;;;;;;;4.54;100.00;102786.09;4995707;28;20037;-87
2023/01/27 12:32:39;;;;;;;7.75;3.50;;;;;;;4.62;100.00;102791.00;5006825;28;20021;-87
2023/01/27 12:35:15;;;;;;;6.10;3.42;;;;;;;4.62;100.00;102793.78;4996278;28;20037;-87
2023/01/27 12:37:40;;;;;;;6.28;3.78;;;;;;;4.38;100.00;102795.63;4984176;28;20042;-87
2023/01/27 12:40:15;;;;;;;5.20;4.15;;;;;;;4.55;100.00;102787.72;4994130;28;20129;-87
2023/01/27 12:42:46;;;;;;;6.05;3.17;;;;;;;4.61;100.00;102781.03;4995328;28;20108;-87
2023/01/27 12:45:22;;;;;;;6.40;3.65;;;;;;;4.52;100.00;102799.41;5014498;28;20025;-87
2023/01/27 12:48:03;;;;;;;4.47;3.15;;;;;;;4.51;100.00;102792.19;4993848;28;20034;-87
2023/01/27 12:50:30;;;;;;;8.10;4.05;;;;;;;4.56;100.00;102800.50;4996396;28;20037;-87
2023/01/27 12:53:13;;;;;;;6.05;3.30;;;;;;;4.51;100.00;102799.69;4993258;28;20032;-87
2023/01/27 12:56:11;;;;;;;6.10;3.78;;;;;;;4.54;100.00;102785.28;5011154;28;20049;-87